Aérodrome :
LOGIN :

S'inscrire | Disclaimer

   EN    FR    IT 

 










Légende :    VFR   VFR Marginal   IFR   IFR Intensif   IFR Très Intensif
Visi : 
Plafond : 
>= 8 km
>= 3000ft
5 à 8 km
1000 à 3000 ft
1500m à 5 km
500 à 1000 ft
800 à 1500m
200 à 500 ft
< 800m
< 200 ft
Symboles :   Orages  Brouillard  Fortes neiges  Fortes précipitations  Vent > 20 kt
SIGMETs :   Divers  Orages  Givrage  Turbulence  Onde Orograph.  Cendres Volcan.







- Altitude de l'aérodrome : 17 ft
- Code IATA : GRS


LIRS - Grosseto

DERNIER METAR :
  • 190455Z 03003KT 8000 MIFG SCT020 SCT030 06/04 Q1024 RMK BKN VIS MIN 8000 WIND THR03 06003KT WIND THR21 14003KT BLU

METARs EXPIRÉS :
  • 190355Z 28002KT 8000 MIFG SCT020 SCT030 06/04 Q1023 RMK BKN VIS MIN 8000 WIND THR03 02003KT WIND THR21 07002KT BLU
  • 190255Z 01003KT 8000 SCT020 SCT025 06/04 Q1024

TAF TAF LIRS
Valide du 19 à 06h jusqu'au 19 à 15h UTC


190500Z 1906/1915 VRB03KT 7000 SCT020 SCT030
TEMPO 1906/1909 BKN025
Pas de NOTAMs connus pour ce terrain.



MET'MAP, la Météo Aéronautique d'un coup d'oeil ! - Copyright ORBIFLY Décembre 2007 - Disclaimer

ORBIFLY MET'MAP TEAM :

Programmation & Développement : Alexandra Zaïnal
Conception & Développement : Baudouin d'Aumeries
Co-Programmation & Développement : Marc-Olivier Méhu
Soutien technique & logistique : Manuel Goepfert

Contact : metmap@orbifly.com




SOURCES & CREDITS :

   NOAA